createdAt,value
2022-11-15T00:04:01.481Z,95578.00
2022-11-15T00:09:47.442Z,95584.00
2022-11-15T00:15:37.382Z,95578.00
2022-11-15T00:21:23.821Z,95575.00
2022-11-15T00:27:10.267Z,95568.00
2022-11-15T00:32:56.768Z,95556.00
2022-11-15T00:38:43.020Z,95565.00
2022-11-15T00:44:29.476Z,95566.00
2022-11-15T00:50:16.208Z,95557.00
2022-11-15T00:56:02.571Z,95550.00
2022-11-15T01:01:48.684Z,95557.00
2022-11-15T01:07:34.847Z,95545.00
2022-11-15T01:13:21.795Z,95537.00
2022-11-15T01:19:08.556Z,95531.00
2022-11-15T01:24:55.028Z,95529.00
2022-11-15T01:30:41.120Z,95514.00
2022-11-15T01:36:27.241Z,95506.00
2022-11-15T01:42:16.287Z,95504.00
2022-11-15T01:48:02.434Z,95485.00
2022-11-15T01:53:53.827Z,95482.00
2022-11-15T01:59:43.671Z,95471.00
2022-11-15T02:05:32.022Z,95464.00
2022-11-15T02:11:18.225Z,95460.00
2022-11-15T02:17:46.288Z,95464.00
2022-11-15T02:24:11.810Z,95451.00
2022-11-15T02:30:06.048Z,95437.00
2022-11-15T02:36:04.021Z,95437.00
2022-11-15T02:42:05.574Z,95429.00
2022-11-15T02:47:56.253Z,95434.00
2022-11-15T02:53:42.893Z,95438.00
2022-11-15T02:59:50.697Z,95442.00
2022-11-15T03:05:59.081Z,95435.00
2022-11-15T03:11:53.655Z,95427.00
2022-11-15T03:17:49.533Z,95422.00
2022-11-15T03:23:38.545Z,95415.00
2022-11-15T03:29:32.928Z,95417.00
2022-11-15T03:35:24.016Z,95410.00
2022-11-15T03:41:29.293Z,95407.00
2022-11-15T03:47:50.622Z,95404.00
2022-11-15T03:53:37.020Z,95397.00
2022-11-15T03:59:23.907Z,95392.00
2022-11-15T04:05:10.153Z,95395.00
2022-11-15T04:10:56.876Z,95387.00
2022-11-15T04:16:44.157Z,95377.00
2022-11-15T04:22:48.967Z,95366.00
2022-11-15T04:28:35.279Z,95356.00
2022-11-15T04:34:21.627Z,95345.00
2022-11-15T04:40:09.972Z,95338.00
2022-11-15T04:45:56.967Z,95333.00
2022-11-15T04:51:43.421Z,95339.00
2022-11-15T04:57:29.311Z,95345.00
2022-11-15T05:03:34.588Z,95342.00
2022-11-15T05:09:22.180Z,95344.00
2022-11-15T05:15:09.236Z,95338.00
2022-11-15T05:20:55.589Z,95329.00
2022-11-15T05:26:41.686Z,95323.00
2022-11-15T05:32:29.140Z,95320.00
2022-11-15T05:38:15.805Z,95317.00
2022-11-15T05:44:04.072Z,95312.00
2022-11-15T05:49:52.916Z,95300.00
2022-11-15T05:55:41.209Z,95292.00
2022-11-15T06:01:28.198Z,95294.00
2022-11-15T06:07:14.863Z,95299.00
2022-11-15T06:13:05.721Z,95294.00
2022-11-15T06:18:52.006Z,95290.00
2022-11-15T06:24:38.263Z,95284.00
2022-11-15T06:30:25.920Z,95290.00
2022-11-15T06:36:18.271Z,95298.00
2022-11-15T06:42:09.486Z,95299.00
2022-11-15T06:47:55.985Z,95304.00
2022-11-15T06:53:42.080Z,95300.00
2022-11-15T06:59:28.521Z,95301.00
2022-11-15T07:05:16.132Z,95290.00
2022-11-15T07:11:06.036Z,95300.00
2022-11-15T07:16:52.519Z,95302.00
2022-11-15T07:22:38.817Z,95293.00
2022-11-15T07:28:25.560Z,95295.00
2022-11-15T07:34:12.084Z,95303.00
2022-11-15T07:39:58.599Z,95316.00
2022-11-15T07:45:46.765Z,95305.00
2022-11-15T07:51:33.252Z,95311.00
2022-11-15T07:57:19.855Z,95309.00
2022-11-15T08:03:15.676Z,95300.00
2022-11-15T08:09:02.137Z,95293.00
2022-11-15T08:14:48.348Z,95291.00
2022-11-15T08:20:35.163Z,95283.00
2022-11-15T08:26:21.296Z,95272.00
2022-11-15T08:32:08.365Z,95259.00
2022-11-15T08:37:54.989Z,95241.00
2022-11-15T08:43:41.645Z,95231.00
2022-11-15T08:49:28.197Z,95233.00
2022-11-15T08:55:16.910Z,95228.00
2022-11-15T09:01:05.294Z,95231.00
2022-11-15T09:06:51.774Z,95233.00
2022-11-15T09:12:38.233Z,95248.00
2022-11-15T09:18:24.468Z,95239.00
2022-11-15T09:24:10.767Z,95242.00
2022-11-15T09:29:57.500Z,95232.00
2022-11-15T09:35:43.602Z,95227.00
2022-11-15T09:42:27.203Z,95211.00
2022-11-15T09:48:23.991Z,95215.00
2022-11-15T09:54:54.698Z,95197.00
2022-11-15T10:00:48.005Z,95179.00
2022-11-15T10:06:29.839Z,95163.00
2022-11-15T10:11:58.250Z,95169.00
2022-11-15T10:18:07.802Z,95172.00
2022-11-15T10:23:35.644Z,95158.00
2022-11-15T10:29:03.554Z,95140.00
2022-11-15T10:34:38.126Z,95140.00
2022-11-15T10:40:17.968Z,95136.00
2022-11-15T10:45:47.505Z,95139.00
2022-11-15T10:51:29.509Z,95116.00
2022-11-15T10:57:01.041Z,95113.00
2022-11-15T11:02:39.326Z,95093.00
2022-11-15T11:08:27.532Z,95096.00
2022-11-15T11:13:55.426Z,95089.00
2022-11-15T11:19:54.466Z,95085.00
2022-11-15T11:25:37.538Z,95069.00
2022-11-15T11:31:17.267Z,95062.00
2022-11-15T11:37:14.830Z,95065.00
2022-11-15T11:43:22.346Z,95053.00
2022-11-15T11:49:04.736Z,95042.00
2022-11-15T11:54:54.035Z,95039.00
2022-11-15T12:00:24.843Z,95023.00
2022-11-15T12:06:36.045Z,95020.00
2022-11-15T12:12:49.759Z,95016.00
2022-11-15T12:18:18.247Z,95018.00
2022-11-15T12:23:56.023Z,95008.00
2022-11-15T12:29:57.060Z,94998.00
2022-11-15T12:35:46.275Z,95000.00
2022-11-15T12:41:18.441Z,94996.00
2022-11-15T12:46:46.424Z,94992.00
2022-11-15T12:52:14.865Z,94991.00
2022-11-15T12:57:43.906Z,94986.00
2022-11-15T13:03:24.560Z,94983.00
2022-11-15T13:08:52.632Z,94980.00
2022-11-15T13:14:40.507Z,94973.00
2022-11-15T13:20:08.233Z,94980.00
2022-11-15T13:25:57.174Z,94980.00
2022-11-15T13:31:42.387Z,94970.00
2022-11-15T13:37:30.976Z,94959.00
2022-11-15T13:42:59.431Z,94959.00
2022-11-15T13:48:31.262Z,94967.00
2022-11-15T13:54:15.434Z,94960.00
2022-11-15T14:00:06.882Z,94958.00
2022-11-15T14:05:40.944Z,94955.00
2022-11-15T14:11:20.791Z,94958.00
2022-11-15T14:17:00.278Z,94969.00
2022-11-15T14:22:31.104Z,94961.00
2022-11-15T14:28:25.647Z,94964.00
2022-11-15T14:33:53.848Z,94958.00
2022-11-15T14:39:22.415Z,94971.00
2022-11-15T14:44:52.196Z,94970.00
2022-11-15T14:50:22.350Z,94972.00
2022-11-15T14:55:50.856Z,94971.00
2022-11-15T15:01:28.550Z,94968.00
2022-11-15T15:06:57.388Z,94950.00
2022-11-15T15:12:25.286Z,94949.00
2022-11-15T15:17:54.302Z,94947.00
2022-11-15T15:23:24.238Z,94952.00
2022-11-15T15:28:53.591Z,94949.00
2022-11-15T15:34:21.675Z,94931.00
2022-11-15T15:39:50.714Z,94936.00
2022-11-15T15:45:19.844Z,94953.00
2022-11-15T15:50:50.275Z,94948.00
2022-11-15T15:56:18.085Z,94937.00
2022-11-15T16:01:45.914Z,94940.00
2022-11-15T16:07:22.758Z,94934.00
2022-11-15T16:12:50.911Z,94930.00
2022-11-15T16:18:19.226Z,94926.00
2022-11-15T16:23:47.190Z,94921.00
2022-11-15T16:29:15.142Z,94921.00
2022-11-15T16:34:48.518Z,94906.00
2022-11-15T16:40:43.743Z,94906.00
2022-11-15T16:46:26.956Z,94907.00
2022-11-15T16:51:54.707Z,94887.00
2022-11-15T16:57:22.411Z,94888.00
2022-11-15T17:02:52.119Z,94887.00
2022-11-15T17:08:22.065Z,94886.00
2022-11-15T17:13:50.185Z,94871.00
2022-11-15T17:19:21.147Z,94867.00
2022-11-15T17:24:48.981Z,94872.00
2022-11-15T17:30:18.770Z,94864.00
2022-11-15T17:35:46.538Z,94861.00
2022-11-15T17:41:17.515Z,94846.00
2022-11-15T17:46:45.679Z,94846.00
2022-11-15T17:52:13.879Z,94841.00
2022-11-15T17:57:44.422Z,94838.00
2022-11-15T18:03:12.972Z,94841.00
2022-11-15T18:08:43.367Z,94829.00
2022-11-15T18:14:15.160Z,94831.00
2022-11-15T18:19:43.060Z,94812.00
2022-11-15T18:25:15.891Z,94823.00
2022-11-15T18:30:43.758Z,94813.00
2022-11-15T18:36:36.571Z,94814.00
2022-11-15T18:42:05.023Z,94809.00
2022-11-15T18:47:32.855Z,94812.00
2022-11-15T18:53:01.746Z,94795.00
2022-11-15T18:58:32.288Z,94794.00
2022-11-15T19:04:11.322Z,94787.00
2022-11-15T19:09:39.091Z,94782.00
2022-11-15T19:15:10.120Z,94775.00
2022-11-15T19:20:38.327Z,94767.00
2022-11-15T19:26:16.092Z,94764.00
2022-11-15T19:31:44.333Z,94757.00
2022-11-15T19:37:12.664Z,94751.00
2022-11-15T19:42:40.722Z,94749.00
2022-11-15T19:48:08.499Z,94739.00
2022-11-15T19:53:37.011Z,94741.00
2022-11-15T19:59:05.645Z,94739.00
2022-11-15T20:04:33.351Z,94742.00
2022-11-15T20:10:01.281Z,94740.00
2022-11-15T20:15:29.193Z,94736.00
2022-11-15T20:20:59.289Z,94727.00
2022-11-15T20:26:27.333Z,94721.00
2022-11-15T20:31:55.096Z,94718.00
2022-11-15T20:37:23.199Z,94703.00
2022-11-15T20:42:53.977Z,94691.00
2022-11-15T20:48:22.134Z,94684.00
2022-11-15T20:53:50.094Z,94677.00
2022-11-15T20:59:17.928Z,94674.00
2022-11-15T21:04:45.683Z,94679.00
2022-11-15T21:10:32.454Z,94664.00
2022-11-15T21:16:00.631Z,94660.00
2022-11-15T21:21:28.485Z,94653.00
2022-11-15T21:26:56.882Z,94648.00
2022-11-15T21:32:24.751Z,94619.00
2022-11-15T21:37:56.732Z,94615.00
2022-11-15T21:43:25.022Z,94613.00
2022-11-15T21:48:52.988Z,94603.00
2022-11-15T21:54:21.035Z,94599.00
2022-11-15T22:00:07.801Z,94588.00
2022-11-15T22:05:35.621Z,94573.00
2022-11-15T22:11:03.640Z,94569.00
2022-11-15T22:16:31.959Z,94568.00
2022-11-15T22:21:59.846Z,94562.00
2022-11-15T22:27:27.858Z,94551.00
2022-11-15T22:32:55.751Z,94533.00
2022-11-15T22:38:24.768Z,94532.00
2022-11-15T22:43:52.678Z,94524.00
2022-11-15T22:49:20.612Z,94524.00
2022-11-15T22:54:48.418Z,94535.00
2022-11-15T23:00:17.159Z,94550.00
2022-11-15T23:05:45.512Z,94547.00
2022-11-15T23:11:32.159Z,94534.00
2022-11-15T23:17:00.137Z,94518.00
2022-11-15T23:22:47.022Z,94512.00
2022-11-15T23:28:15.321Z,94513.00
2022-11-15T23:33:58.646Z,94511.00
2022-11-15T23:39:27.054Z,94511.00
2022-11-15T23:44:55.019Z,94510.00
2022-11-15T23:50:22.883Z,94488.00
2022-11-15T23:56:10.585Z,94470.00
